sensor_id;sensor_type;location;lat;lon;timestamp;temperature;humidity
33574;DHT22;20085;50.832;4.392;2022-08-20T00:01:27;22.00;98.80
33574;DHT22;20085;50.832;4.392;2022-08-20T00:03:53;22.00;98.80
33574;DHT22;20085;50.832;4.392;2022-08-20T00:06:21;21.90;98.70
33574;DHT22;20085;50.832;4.392;2022-08-20T00:08:48;21.90;98.70
33574;DHT22;20085;50.832;4.392;2022-08-20T00:11:18;21.80;98.80
33574;DHT22;20085;50.832;4.392;2022-08-20T00:13:47;21.80;98.80
33574;DHT22;20085;50.832;4.392;2022-08-20T00:16:15;21.90;98.80
33574;DHT22;20085;50.832;4.392;2022-08-20T00:18:42;21.80;98.80
33574;DHT22;20085;50.832;4.392;2022-08-20T00:21:12;21.80;98.60
33574;DHT22;20085;50.832;4.392;2022-08-20T00:23:41;21.90;98.70
33574;DHT22;20085;50.832;4.392;2022-08-20T00:26:10;21.80;98.80
33574;DHT22;20085;50.832;4.392;2022-08-20T00:28:37;21.80;98.60
33574;DHT22;20085;50.832;4.392;2022-08-20T00:31:05;21.70;98.60
33574;DHT22;20085;50.832;4.392;2022-08-20T00:33:31;21.70;98.50
33574;DHT22;20085;50.832;4.392;2022-08-20T00:35:56;21.60;98.30
33574;DHT22;20085;50.832;4.392;2022-08-20T00:38:23;21.70;98.10
33574;DHT22;20085;50.832;4.392;2022-08-20T00:40:55;21.60;98.10
33574;DHT22;20085;50.832;4.392;2022-08-20T00:46:01;21.40;98.00
33574;DHT22;20085;50.832;4.392;2022-08-20T00:48:30;21.50;98.00
33574;DHT22;20085;50.832;4.392;2022-08-20T00:51:14;21.50;98.00
33574;DHT22;20085;50.832;4.392;2022-08-20T00:53:42;21.60;98.00
33574;DHT22;20085;50.832;4.392;2022-08-20T00:56:10;21.50;98.00
33574;DHT22;20085;50.832;4.392;2022-08-20T00:58:38;21.50;98.10
33574;DHT22;20085;50.832;4.392;2022-08-20T01:01:05;21.50;98.10
33574;DHT22;20085;50.832;4.392;2022-08-20T01:03:31;21.50;98.00
33574;DHT22;20085;50.832;4.392;2022-08-20T01:05:57;21.50;98.00
33574;DHT22;20085;50.832;4.392;2022-08-20T01:08:24;21.40;98.20
33574;DHT22;20085;50.832;4.392;2022-08-20T01:10:52;21.40;98.20
33574;DHT22;20085;50.832;4.392;2022-08-20T01:13:27;21.20;98.20
33574;DHT22;20085;50.832;4.392;2022-08-20T01:15:55;21.30;98.20
33574;DHT22;20085;50.832;4.392;2022-08-20T01:18:24;21.30;98.10
33574;DHT22;20085;50.832;4.392;2022-08-20T01:20:59;21.30;98.00
33574;DHT22;20085;50.832;4.392;2022-08-20T01:28:50;21.30;97.80
33574;DHT22;20085;50.832;4.392;2022-08-20T01:31:36;21.20;97.90
33574;DHT22;20085;50.832;4.392;2022-08-20T01:34:04;21.20;97.90
33574;DHT22;20085;50.832;4.392;2022-08-20T01:36:34;21.20;98.00
33574;DHT22;20085;50.832;4.392;2022-08-20T01:39:02;21.20;98.00
33574;DHT22;20085;50.832;4.392;2022-08-20T01:44:10;21.20;97.90
33574;DHT22;20085;50.832;4.392;2022-08-20T01:46:40;21.10;97.90
33574;DHT22;20085;50.832;4.392;2022-08-20T01:49:22;21.10;97.90
33574;DHT22;20085;50.832;4.392;2022-08-20T01:51:48;21.10;97.90
33574;DHT22;20085;50.832;4.392;2022-08-20T01:54:14;21.10;98.00
33574;DHT22;20085;50.832;4.392;2022-08-20T01:57:11;21.00;98.00
33574;DHT22;20085;50.832;4.392;2022-08-20T01:59:38;21.00;98.00
33574;DHT22;20085;50.832;4.392;2022-08-20T02:02:03;20.90;98.00
33574;DHT22;20085;50.832;4.392;2022-08-20T02:04:29;20.90;98.00
33574;DHT22;20085;50.832;4.392;2022-08-20T02:06:57;20.90;98.00
33574;DHT22;20085;50.832;4.392;2022-08-20T02:09:26;20.90;98.00
33574;DHT22;20085;50.832;4.392;2022-08-20T02:11:52;20.90;98.00
33574;DHT22;20085;50.832;4.392;2022-08-20T02:14:17;20.80;98.10
33574;DHT22;20085;50.832;4.392;2022-08-20T02:16:45;20.80;98.10
33574;DHT22;20085;50.832;4.392;2022-08-20T02:19:17;20.80;98.10
33574;DHT22;20085;50.832;4.392;2022-08-20T02:21:51;20.80;98.00
33574;DHT22;20085;50.832;4.392;2022-08-20T02:24:18;20.80;98.10
33574;DHT22;20085;50.832;4.392;2022-08-20T02:26:44;20.70;98.10
33574;DHT22;20085;50.832;4.392;2022-08-20T02:29:12;20.80;98.10
33574;DHT22;20085;50.832;4.392;2022-08-20T02:31:38;20.80;98.10
33574;DHT22;20085;50.832;4.392;2022-08-20T02:34:05;20.80;98.00
33574;DHT22;20085;50.832;4.392;2022-08-20T02:36:33;20.80;98.00
33574;DHT22;20085;50.832;4.392;2022-08-20T02:39:01;20.70;98.10
33574;DHT22;20085;50.832;4.392;2022-08-20T02:41:26;20.60;98.20
33574;DHT22;20085;50.832;4.392;2022-08-20T02:43:52;20.60;98.20
33574;DHT22;20085;50.832;4.392;2022-08-20T02:46:18;20.60;98.20
33574;DHT22;20085;50.832;4.392;2022-08-20T02:48:44;20.60;98.20
33574;DHT22;20085;50.832;4.392;2022-08-20T02:51:10;20.70;98.10
33574;DHT22;20085;50.832;4.392;2022-08-20T02:53:37;20.60;98.20
33574;DHT22;20085;50.832;4.392;2022-08-20T02:56:07;20.60;98.20
33574;DHT22;20085;50.832;4.392;2022-08-20T02:58:34;20.50;98.30
33574;DHT22;20085;50.832;4.392;2022-08-20T03:01:01;20.50;98.40
33574;DHT22;20085;50.832;4.392;2022-08-20T03:03:26;20.50;98.40
33574;DHT22;20085;50.832;4.392;2022-08-20T03:05:54;20.40;98.40
33574;DHT22;20085;50.832;4.392;2022-08-20T03:08:20;20.40;98.40
33574;DHT22;20085;50.832;4.392;2022-08-20T03:10:47;20.40;98.40
33574;DHT22;20085;50.832;4.392;2022-08-20T03:13:13;20.50;98.40
33574;DHT22;20085;50.832;4.392;2022-08-20T03:15:46;20.40;98.40
33574;DHT22;20085;50.832;4.392;2022-08-20T03:18:12;20.40;98.40
33574;DHT22;20085;50.832;4.392;2022-08-20T03:20:38;20.40;98.50
33574;DHT22;20085;50.832;4.392;2022-08-20T03:23:04;20.40;98.40
33574;DHT22;20085;50.832;4.392;2022-08-20T03:25:30;20.40;98.30
33574;DHT22;20085;50.832;4.392;2022-08-20T03:27:56;20.40;98.40
33574;DHT22;20085;50.832;4.392;2022-08-20T03:30:24;20.40;98.40
33574;DHT22;20085;50.832;4.392;2022-08-20T03:32:51;20.40;98.30
33574;DHT22;20085;50.832;4.392;2022-08-20T03:35:20;20.40;98.30
33574;DHT22;20085;50.832;4.392;2022-08-20T03:37:46;20.40;98.20
33574;DHT22;20085;50.832;4.392;2022-08-20T03:40:17;20.40;98.30
33574;DHT22;20085;50.832;4.392;2022-08-20T03:42:43;20.40;98.30
33574;DHT22;20085;50.832;4.392;2022-08-20T03:45:10;20.40;98.30
33574;DHT22;20085;50.832;4.392;2022-08-20T03:47:37;20.30;98.30
33574;DHT22;20085;50.832;4.392;2022-08-20T03:50:06;20.20;98.40
33574;DHT22;20085;50.832;4.392;2022-08-20T03:52:34;20.30;98.40
33574;DHT22;20085;50.832;4.392;2022-08-20T03:55:00;20.30;98.30
33574;DHT22;20085;50.832;4.392;2022-08-20T03:57:26;20.30;98.40
33574;DHT22;20085;50.832;4.392;2022-08-20T03:59:52;20.20;98.40
33574;DHT22;20085;50.832;4.392;2022-08-20T04:02:18;20.30;98.30
33574;DHT22;20085;50.832;4.392;2022-08-20T04:04:44;20.30;98.40
33574;DHT22;20085;50.832;4.392;2022-08-20T04:07:18;20.30;98.40
33574;DHT22;20085;50.832;4.392;2022-08-20T04:09:51;20.30;98.30
33574;DHT22;20085;50.832;4.392;2022-08-20T04:12:17;20.30;98.30
33574;DHT22;20085;50.832;4.392;2022-08-20T04:14:43;20.30;98.30
33574;DHT22;20085;50.832;4.392;2022-08-20T04:17:10;20.20;98.30
33574;DHT22;20085;50.832;4.392;2022-08-20T04:19:37;20.20;98.30
33574;DHT22;20085;50.832;4.392;2022-08-20T04:22:04;20.20;98.30
33574;DHT22;20085;50.832;4.392;2022-08-20T04:24:30;20.20;98.30
33574;DHT22;20085;50.832;4.392;2022-08-20T04:26:57;20.10;98.30
33574;DHT22;20085;50.832;4.392;2022-08-20T04:29:23;20.20;98.40
33574;DHT22;20085;50.832;4.392;2022-08-20T04:31:51;20.20;98.30
33574;DHT22;20085;50.832;4.392;2022-08-20T04:34:16;20.10;98.20
33574;DHT22;20085;50.832;4.392;2022-08-20T04:36:43;20.10;98.30
33574;DHT22;20085;50.832;4.392;2022-08-20T04:39:14;20.10;98.30
33574;DHT22;20085;50.832;4.392;2022-08-20T04:41:41;20.10;98.30
33574;DHT22;20085;50.832;4.392;2022-08-20T04:44:07;20.00;98.40
33574;DHT22;20085;50.832;4.392;2022-08-20T04:46:33;19.90;98.40
33574;DHT22;20085;50.832;4.392;2022-08-20T04:48:59;19.90;98.50
33574;DHT22;20085;50.832;4.392;2022-08-20T04:51:26;19.90;98.60
33574;DHT22;20085;50.832;4.392;2022-08-20T04:53:52;19.70;98.70
33574;DHT22;20085;50.832;4.392;2022-08-20T04:56:23;19.70;98.90
33574;DHT22;20085;50.832;4.392;2022-08-20T04:58:51;19.70;98.90
33574;DHT22;20085;50.832;4.392;2022-08-20T05:01:17;19.70;98.90
33574;DHT22;20085;50.832;4.392;2022-08-20T05:03:43;19.70;98.90
33574;DHT22;20085;50.832;4.392;2022-08-20T05:06:10;19.80;98.90
33574;DHT22;20085;50.832;4.392;2022-08-20T05:08:37;19.70;98.90
33574;DHT22;20085;50.832;4.392;2022-08-20T05:11:04;19.60;98.90
33574;DHT22;20085;50.832;4.392;2022-08-20T05:13:30;19.60;99.00
33574;DHT22;20085;50.832;4.392;2022-08-20T05:15:56;19.60;99.10
33574;DHT22;20085;50.832;4.392;2022-08-20T05:18:25;19.60;99.30
33574;DHT22;20085;50.832;4.392;2022-08-20T05:20:51;19.60;99.00
33574;DHT22;20085;50.832;4.392;2022-08-20T05:23:19;19.70;99.20
33574;DHT22;20085;50.832;4.392;2022-08-20T05:25:47;19.70;99.00
33574;DHT22;20085;50.832;4.392;2022-08-20T05:28:19;19.70;98.90
33574;DHT22;20085;50.832;4.392;2022-08-20T05:30:47;19.70;98.90
33574;DHT22;20085;50.832;4.392;2022-08-20T05:33:14;19.70;99.00
33574;DHT22;20085;50.832;4.392;2022-08-20T05:35:42;19.70;98.90
33574;DHT22;20085;50.832;4.392;2022-08-20T05:38:10;19.70;98.90
33574;DHT22;20085;50.832;4.392;2022-08-20T05:40:37;19.70;98.90
33574;DHT22;20085;50.832;4.392;2022-08-20T05:43:04;19.70;98.90
33574;DHT22;20085;50.832;4.392;2022-08-20T05:45:31;19.70;98.90
33574;DHT22;20085;50.832;4.392;2022-08-20T05:47:58;19.80;98.80
33574;DHT22;20085;50.832;4.392;2022-08-20T05:50:28;19.80;98.80
33574;DHT22;20085;50.832;4.392;2022-08-20T05:52:53;19.70;98.90
33574;DHT22;20085;50.832;4.392;2022-08-20T05:55:19;19.70;98.90
33574;DHT22;20085;50.832;4.392;2022-08-20T05:57:45;19.70;99.00
33574;DHT22;20085;50.832;4.392;2022-08-20T06:00:13;19.60;99.00
33574;DHT22;20085;50.832;4.392;2022-08-20T06:02:39;19.70;99.00
33574;DHT22;20085;50.832;4.392;2022-08-20T06:05:24;19.70;99.00
33574;DHT22;20085;50.832;4.392;2022-08-20T06:07:51;19.70;98.90
33574;DHT22;20085;50.832;4.392;2022-08-20T06:10:17;19.70;99.00
33574;DHT22;20085;50.832;4.392;2022-08-20T06:12:46;19.70;99.00
33574;DHT22;20085;50.832;4.392;2022-08-20T06:15:12;19.70;99.00
33574;DHT22;20085;50.832;4.392;2022-08-20T06:17:38;19.70;98.90
33574;DHT22;20085;50.832;4.392;2022-08-20T06:20:06;19.70;99.00
33574;DHT22;20085;50.832;4.392;2022-08-20T06:22:33;19.70;99.00
33574;DHT22;20085;50.832;4.392;2022-08-20T06:24:59;19.80;99.00
33574;DHT22;20085;50.832;4.392;2022-08-20T06:27:25;19.70;99.00
33574;DHT22;20085;50.832;4.392;2022-08-20T06:29:52;19.70;99.00
33574;DHT22;20085;50.832;4.392;2022-08-20T06:32:19;19.80;99.10
33574;DHT22;20085;50.832;4.392;2022-08-20T06:34:45;19.80;99.10
33574;DHT22;20085;50.832;4.392;2022-08-20T06:37:25;19.80;99.10
33574;DHT22;20085;50.832;4.392;2022-08-20T06:39:51;19.70;99.20
33574;DHT22;20085;50.832;4.392;2022-08-20T06:42:17;19.80;99.30
33574;DHT22;20085;50.832;4.392;2022-08-20T06:44:45;19.80;99.30
33574;DHT22;20085;50.832;4.392;2022-08-20T06:47:16;19.80;99.30
33574;DHT22;20085;50.832;4.392;2022-08-20T06:49:42;19.90;99.30
33574;DHT22;20085;50.832;4.392;2022-08-20T06:52:08;19.90;99.30
33574;DHT22;20085;50.832;4.392;2022-08-20T06:54:34;20.00;99.20
33574;DHT22;20085;50.832;4.392;2022-08-20T06:57:05;20.00;99.20
33574;DHT22;20085;50.832;4.392;2022-08-20T06:59:34;20.10;99.20
33574;DHT22;20085;50.832;4.392;2022-08-20T07:02:01;20.00;99.30
33574;DHT22;20085;50.832;4.392;2022-08-20T07:04:27;20.00;99.50
33574;DHT22;20085;50.832;4.392;2022-08-20T07:06:54;20.00;99.70
33574;DHT22;20085;50.832;4.392;2022-08-20T07:09:20;20.10;99.70
33574;DHT22;20085;50.832;4.392;2022-08-20T07:11:46;20.10;99.70
33574;DHT22;20085;50.832;4.392;2022-08-20T07:14:13;20.20;99.60
33574;DHT22;20085;50.832;4.392;2022-08-20T07:16:39;20.30;99.50
33574;DHT22;20085;50.832;4.392;2022-08-20T07:19:05;20.40;99.40
33574;DHT22;20085;50.832;4.392;2022-08-20T07:21:31;20.50;99.30
33574;DHT22;20085;50.832;4.392;2022-08-20T07:23:57;20.50;99.60
33574;DHT22;20085;50.832;4.392;2022-08-20T07:26:23;20.50;99.40
33574;DHT22;20085;50.832;4.392;2022-08-20T07:28:49;20.60;99.40
33574;DHT22;20085;50.832;4.392;2022-08-20T07:31:15;20.60;99.40
33574;DHT22;20085;50.832;4.392;2022-08-20T07:33:59;20.60;99.50
33574;DHT22;20085;50.832;4.392;2022-08-20T07:36:24;20.50;99.50
33574;DHT22;20085;50.832;4.392;2022-08-20T07:38:50;20.60;99.50
33574;DHT22;20085;50.832;4.392;2022-08-20T07:41:17;20.60;99.50
33574;DHT22;20085;50.832;4.392;2022-08-20T07:43:44;20.60;99.50
33574;DHT22;20085;50.832;4.392;2022-08-20T07:46:15;20.60;99.60
33574;DHT22;20085;50.832;4.392;2022-08-20T07:48:44;20.70;99.60
33574;DHT22;20085;50.832;4.392;2022-08-20T07:51:16;20.60;99.60
33574;DHT22;20085;50.832;4.392;2022-08-20T07:53:46;20.70;99.60
33574;DHT22;20085;50.832;4.392;2022-08-20T07:56:18;20.70;99.60
33574;DHT22;20085;50.832;4.392;2022-08-20T07:58:48;20.80;99.60
33574;DHT22;20085;50.832;4.392;2022-08-20T08:01:25;20.90;99.50
33574;DHT22;20085;50.832;4.392;2022-08-20T08:03:52;21.00;99.40
33574;DHT22;20085;50.832;4.392;2022-08-20T08:06:21;21.00;99.10
33574;DHT22;20085;50.832;4.392;2022-08-20T08:08:47;21.00;99.10
33574;DHT22;20085;50.832;4.392;2022-08-20T08:11:13;21.00;99.20
33574;DHT22;20085;50.832;4.392;2022-08-20T08:13:40;21.00;99.30
33574;DHT22;20085;50.832;4.392;2022-08-20T08:16:07;21.00;99.50
33574;DHT22;20085;50.832;4.392;2022-08-20T08:18:40;21.00;99.50
33574;DHT22;20085;50.832;4.392;2022-08-20T08:21:09;21.00;99.40
33574;DHT22;20085;50.832;4.392;2022-08-20T08:23:38;21.10;99.30
33574;DHT22;20085;50.832;4.392;2022-08-20T08:26:08;21.20;99.10
33574;DHT22;20085;50.832;4.392;2022-08-20T08:28:34;21.30;99.00
33574;DHT22;20085;50.832;4.392;2022-08-20T08:31:01;21.30;99.00
33574;DHT22;20085;50.832;4.392;2022-08-20T08:33:29;21.30;99.00
33574;DHT22;20085;50.832;4.392;2022-08-20T08:36:07;21.40;99.10
33574;DHT22;20085;50.832;4.392;2022-08-20T08:38:35;21.50;98.90
33574;DHT22;20085;50.832;4.392;2022-08-20T08:41:27;21.60;98.60
33574;DHT22;20085;50.832;4.392;2022-08-20T08:44:06;21.80;98.20
33574;DHT22;20085;50.832;4.392;2022-08-20T08:46:42;21.70;98.10
33574;DHT22;20085;50.832;4.392;2022-08-20T08:49:15;21.60;98.20
33574;DHT22;20085;50.832;4.392;2022-08-20T08:51:46;21.60;98.10
33574;DHT22;20085;50.832;4.392;2022-08-20T08:54:20;21.60;98.10
33574;DHT22;20085;50.832;4.392;2022-08-20T08:56:46;21.70;98.00
33574;DHT22;20085;50.832;4.392;2022-08-20T08:59:12;21.80;97.90
33574;DHT22;20085;50.832;4.392;2022-08-20T09:01:42;21.80;98.00
33574;DHT22;20085;50.832;4.392;2022-08-20T09:04:14;21.80;97.60
33574;DHT22;20085;50.832;4.392;2022-08-20T09:06:41;21.80;96.90
33574;DHT22;20085;50.832;4.392;2022-08-20T09:09:22;21.90;96.70
33574;DHT22;20085;50.832;4.392;2022-08-20T09:11:53;22.00;96.70
33574;DHT22;20085;50.832;4.392;2022-08-20T09:14:20;22.10;96.70
33574;DHT22;20085;50.832;4.392;2022-08-20T09:16:47;22.30;96.20
33574;DHT22;20085;50.832;4.392;2022-08-20T09:19:13;22.30;95.10
33574;DHT22;20085;50.832;4.392;2022-08-20T09:21:38;22.40;93.60
33574;DHT22;20085;50.832;4.392;2022-08-20T09:24:05;22.50;93.00
33574;DHT22;20085;50.832;4.392;2022-08-20T09:26:32;22.60;93.00
33574;DHT22;20085;50.832;4.392;2022-08-20T09:28:57;22.60;93.10
33574;DHT22;20085;50.832;4.392;2022-08-20T09:31:41;22.60;92.40
33574;DHT22;20085;50.832;4.392;2022-08-20T09:34:06;22.60;91.70
33574;DHT22;20085;50.832;4.392;2022-08-20T09:36:32;22.70;91.40
33574;DHT22;20085;50.832;4.392;2022-08-20T09:38:58;22.80;91.00
33574;DHT22;20085;50.832;4.392;2022-08-20T09:41:24;22.90;90.20
33574;DHT22;20085;50.832;4.392;2022-08-20T09:43:50;22.90;90.60
33574;DHT22;20085;50.832;4.392;2022-08-20T09:46:15;22.80;90.70
33574;DHT22;20085;50.832;4.392;2022-08-20T09:48:41;22.70;82.50
33574;DHT22;20085;50.832;4.392;2022-08-20T09:51:06;22.70;81.00
33574;DHT22;20085;50.832;4.392;2022-08-20T09:53:32;22.60;81.10
33574;DHT22;20085;50.832;4.392;2022-08-20T09:55:58;22.50;81.20
33574;DHT22;20085;50.832;4.392;2022-08-20T09:58:34;22.50;79.60
33574;DHT22;20085;50.832;4.392;2022-08-20T10:01:13;22.60;77.90
33574;DHT22;20085;50.832;4.392;2022-08-20T10:03:43;22.70;73.40
33574;DHT22;20085;50.832;4.392;2022-08-20T10:06:12;22.70;72.50
33574;DHT22;20085;50.832;4.392;2022-08-20T10:08:39;22.70;72.20
33574;DHT22;20085;50.832;4.392;2022-08-20T10:11:05;22.80;73.20
33574;DHT22;20085;50.832;4.392;2022-08-20T10:13:31;22.80;72.80
33574;DHT22;20085;50.832;4.392;2022-08-20T10:15:57;22.80;73.90
33574;DHT22;20085;50.832;4.392;2022-08-20T10:18:22;22.90;72.00
33574;DHT22;20085;50.832;4.392;2022-08-20T10:20:48;22.90;72.60
33574;DHT22;20085;50.832;4.392;2022-08-20T10:23:14;23.00;69.30
33574;DHT22;20085;50.832;4.392;2022-08-20T10:25:41;22.90;72.40
33574;DHT22;20085;50.832;4.392;2022-08-20T10:28:08;23.00;72.60
33574;DHT22;20085;50.832;4.392;2022-08-20T10:30:40;23.00;73.80
33574;DHT22;20085;50.832;4.392;2022-08-20T10:33:06;22.90;73.00
33574;DHT22;20085;50.832;4.392;2022-08-20T10:35:32;22.90;73.70
33574;DHT22;20085;50.832;4.392;2022-08-20T10:37:58;23.00;73.90
33574;DHT22;20085;50.832;4.392;2022-08-20T10:40:23;23.00;73.90
33574;DHT22;20085;50.832;4.392;2022-08-20T10:42:49;23.00;73.00
33574;DHT22;20085;50.832;4.392;2022-08-20T10:45:16;23.00;72.20
33574;DHT22;20085;50.832;4.392;2022-08-20T10:47:42;23.10;73.80
33574;DHT22;20085;50.832;4.392;2022-08-20T10:50:12;23.10;72.10
33574;DHT22;20085;50.832;4.392;2022-08-20T10:52:38;23.10;71.00
33574;DHT22;20085;50.832;4.392;2022-08-20T10:55:04;23.20;70.20
33574;DHT22;20085;50.832;4.392;2022-08-20T10:57:30;23.30;68.80
33574;DHT22;20085;50.832;4.392;2022-08-20T10:59:59;23.30;68.00
33574;DHT22;20085;50.832;4.392;2022-08-20T11:02:26;23.40;69.70
33574;DHT22;20085;50.832;4.392;2022-08-20T11:04:52;23.30;70.30
33574;DHT22;20085;50.832;4.392;2022-08-20T11:07:32;23.40;70.10
33574;DHT22;20085;50.832;4.392;2022-08-20T11:09:58;23.40;71.20
33574;DHT22;20085;50.832;4.392;2022-08-20T11:12:24;23.40;71.70
33574;DHT22;20085;50.832;4.392;2022-08-20T11:14:51;23.40;71.70
33574;DHT22;20085;50.832;4.392;2022-08-20T11:17:28;23.30;71.20
33574;DHT22;20085;50.832;4.392;2022-08-20T11:19:55;23.50;70.70
33574;DHT22;20085;50.832;4.392;2022-08-20T11:22:21;23.40;70.00
33574;DHT22;20085;50.832;4.392;2022-08-20T11:24:47;23.40;69.80
33574;DHT22;20085;50.832;4.392;2022-08-20T11:27:27;23.30;69.20
33574;DHT22;20085;50.832;4.392;2022-08-20T11:29:54;23.40;69.90
33574;DHT22;20085;50.832;4.392;2022-08-20T11:32:20;23.50;70.00
33574;DHT22;20085;50.832;4.392;2022-08-20T11:34:46;23.50;68.80
33574;DHT22;20085;50.832;4.392;2022-08-20T11:37:13;23.60;68.30
33574;DHT22;20085;50.832;4.392;2022-08-20T11:39:40;23.70;69.10
33574;DHT22;20085;50.832;4.392;2022-08-20T11:42:06;23.90;67.90
33574;DHT22;20085;50.832;4.392;2022-08-20T11:44:32;24.00;67.30
33574;DHT22;20085;50.832;4.392;2022-08-20T11:47:02;24.10;66.30
33574;DHT22;20085;50.832;4.392;2022-08-20T11:49:34;24.00;67.60
33574;DHT22;20085;50.832;4.392;2022-08-20T11:52:01;24.00;67.30
33574;DHT22;20085;50.832;4.392;2022-08-20T11:54:26;24.00;67.00
33574;DHT22;20085;50.832;4.392;2022-08-20T11:56:57;24.00;66.20
33574;DHT22;20085;50.832;4.392;2022-08-20T11:59:24;23.90;66.80
33574;DHT22;20085;50.832;4.392;2022-08-20T12:01:50;23.80;66.40
33574;DHT22;20085;50.832;4.392;2022-08-20T12:04:18;23.80;66.40
33574;DHT22;20085;50.832;4.392;2022-08-20T12:06:44;23.80;66.00
33574;DHT22;20085;50.832;4.392;2022-08-20T12:09:10;23.80;64.90
33574;DHT22;20085;50.832;4.392;2022-08-20T12:11:35;24.00;65.20
33574;DHT22;20085;50.832;4.392;2022-08-20T12:14:01;24.20;64.30
33574;DHT22;20085;50.832;4.392;2022-08-20T12:16:26;24.30;64.50
33574;DHT22;20085;50.832;4.392;2022-08-20T12:18:52;24.30;64.50
33574;DHT22;20085;50.832;4.392;2022-08-20T12:21:18;24.20;64.50
33574;DHT22;20085;50.832;4.392;2022-08-20T12:23:44;24.20;64.70
33574;DHT22;20085;50.832;4.392;2022-08-20T12:26:10;24.40;64.00
33574;DHT22;20085;50.832;4.392;2022-08-20T12:28:36;24.60;63.60
33574;DHT22;20085;50.832;4.392;2022-08-20T12:31:02;24.70;63.50
33574;DHT22;20085;50.832;4.392;2022-08-20T12:33:28;25.00;61.70
33574;DHT22;20085;50.832;4.392;2022-08-20T12:35:54;25.10;60.60
33574;DHT22;20085;50.832;4.392;2022-08-20T12:38:19;25.30;60.00
33574;DHT22;20085;50.832;4.392;2022-08-20T12:40:45;25.50;59.20
33574;DHT22;20085;50.832;4.392;2022-08-20T12:43:11;25.60;58.80
33574;DHT22;20085;50.832;4.392;2022-08-20T12:45:36;25.70;58.80
33574;DHT22;20085;50.832;4.392;2022-08-20T12:48:08;25.80;58.70
33574;DHT22;20085;50.832;4.392;2022-08-20T12:50:36;25.90;58.20
33574;DHT22;20085;50.832;4.392;2022-08-20T12:53:02;26.00;57.60
33574;DHT22;20085;50.832;4.392;2022-08-20T12:55:28;26.00;56.70
33574;DHT22;20085;50.832;4.392;2022-08-20T12:57:57;26.10;55.80
33574;DHT22;20085;50.832;4.392;2022-08-20T13:00:25;26.10;55.80
33574;DHT22;20085;50.832;4.392;2022-08-20T13:02:53;26.30;55.80
33574;DHT22;20085;50.832;4.392;2022-08-20T13:05:20;26.40;55.20
33574;DHT22;20085;50.832;4.392;2022-08-20T13:07:47;26.50;54.70
33574;DHT22;20085;50.832;4.392;2022-08-20T13:10:16;26.60;54.40
33574;DHT22;20085;50.832;4.392;2022-08-20T13:12:42;26.60;54.80
33574;DHT22;20085;50.832;4.392;2022-08-20T13:15:08;26.70;54.50
33574;DHT22;20085;50.832;4.392;2022-08-20T13:17:35;26.70;54.50
33574;DHT22;20085;50.832;4.392;2022-08-20T13:20:00;26.90;54.50
33574;DHT22;20085;50.832;4.392;2022-08-20T13:22:26;27.20;53.50
33574;DHT22;20085;50.832;4.392;2022-08-20T13:24:51;27.60;52.10
33574;DHT22;20085;50.832;4.392;2022-08-20T13:27:19;27.70;51.90
33574;DHT22;20085;50.832;4.392;2022-08-20T13:29:54;27.80;51.30
33574;DHT22;20085;50.832;4.392;2022-08-20T13:32:21;28.00;51.20
33574;DHT22;20085;50.832;4.392;2022-08-20T13:34:47;28.30;50.70
33574;DHT22;20085;50.832;4.392;2022-08-20T13:37:15;28.40;50.60
33574;DHT22;20085;50.832;4.392;2022-08-20T13:39:42;28.30;50.80
33574;DHT22;20085;50.832;4.392;2022-08-20T13:42:08;28.30;50.70
33574;DHT22;20085;50.832;4.392;2022-08-20T13:44:35;28.10;50.90
33574;DHT22;20085;50.832;4.392;2022-08-20T13:49:48;28.10;50.60
33574;DHT22;20085;50.832;4.392;2022-08-20T13:52:18;27.80;51.30
33574;DHT22;20085;50.832;4.392;2022-08-20T13:54:44;27.30;52.10
33574;DHT22;20085;50.832;4.392;2022-08-20T13:57:14;27.20;52.50
33574;DHT22;20085;50.832;4.392;2022-08-20T13:59:46;26.90;53.10
33574;DHT22;20085;50.832;4.392;2022-08-20T14:02:14;26.70;53.70
33574;DHT22;20085;50.832;4.392;2022-08-20T14:04:40;26.80;53.10
33574;DHT22;20085;50.832;4.392;2022-08-20T14:09:41;26.70;53.70
33574;DHT22;20085;50.832;4.392;2022-08-20T14:12:08;26.60;53.90
33574;DHT22;20085;50.832;4.392;2022-08-20T14:14:34;26.50;54.30
33574;DHT22;20085;50.832;4.392;2022-08-20T14:17:16;26.50;54.30
33574;DHT22;20085;50.832;4.392;2022-08-20T14:19:43;26.50;54.60
33574;DHT22;20085;50.832;4.392;2022-08-20T14:22:09;26.60;54.20
33574;DHT22;20085;50.832;4.392;2022-08-20T14:24:35;26.60;53.70
33574;DHT22;20085;50.832;4.392;2022-08-20T14:27:05;26.60;54.10
33574;DHT22;20085;50.832;4.392;2022-08-20T14:29:33;26.50;53.70
33574;DHT22;20085;50.832;4.392;2022-08-20T14:32:02;26.50;53.60
33574;DHT22;20085;50.832;4.392;2022-08-20T14:34:28;26.60;53.80
33574;DHT22;20085;50.832;4.392;2022-08-20T14:36:54;26.70;53.40
33574;DHT22;20085;50.832;4.392;2022-08-20T14:39:22;26.80;53.30
33574;DHT22;20085;50.832;4.392;2022-08-20T14:41:47;26.70;52.70
33574;DHT22;20085;50.832;4.392;2022-08-20T14:44:13;26.60;52.70
33574;DHT22;20085;50.832;4.392;2022-08-20T14:46:38;26.50;53.00
33574;DHT22;20085;50.832;4.392;2022-08-20T14:49:04;26.60;53.50
33574;DHT22;20085;50.832;4.392;2022-08-20T14:51:29;26.70;53.00
33574;DHT22;20085;50.832;4.392;2022-08-20T14:53:55;26.60;52.90
33574;DHT22;20085;50.832;4.392;2022-08-20T14:56:21;26.60;53.10
33574;DHT22;20085;50.832;4.392;2022-08-20T14:58:46;26.60;53.10
33574;DHT22;20085;50.832;4.392;2022-08-20T15:01:12;26.50;53.20
33574;DHT22;20085;50.832;4.392;2022-08-20T15:03:38;26.40;53.70
33574;DHT22;20085;50.832;4.392;2022-08-20T15:06:04;26.30;53.70
33574;DHT22;20085;50.832;4.392;2022-08-20T15:08:31;26.10;54.20
33574;DHT22;20085;50.832;4.392;2022-08-20T15:10:57;26.00;54.60
33574;DHT22;20085;50.832;4.392;2022-08-20T15:13:23;26.00;54.60
33574;DHT22;20085;50.832;4.392;2022-08-20T15:15:48;26.00;55.10
33574;DHT22;20085;50.832;4.392;2022-08-20T15:18:17;25.90;54.90
33574;DHT22;20085;50.832;4.392;2022-08-20T15:20:43;25.90;55.00
33574;DHT22;20085;50.832;4.392;2022-08-20T15:23:09;26.00;54.90
33574;DHT22;20085;50.832;4.392;2022-08-20T15:25:35;26.10;54.90
33574;DHT22;20085;50.832;4.392;2022-08-20T15:28:01;26.10;54.90
33574;DHT22;20085;50.832;4.392;2022-08-20T15:30:28;26.10;54.60
33574;DHT22;20085;50.832;4.392;2022-08-20T15:32:54;26.10;54.70
33574;DHT22;20085;50.832;4.392;2022-08-20T15:35:24;26.10;54.90
33574;DHT22;20085;50.832;4.392;2022-08-20T15:37:50;26.30;54.50
33574;DHT22;20085;50.832;4.392;2022-08-20T15:40:19;26.20;54.50
33574;DHT22;20085;50.832;4.392;2022-08-20T15:42:45;26.20;54.10
33574;DHT22;20085;50.832;4.392;2022-08-20T15:45:12;26.20;54.30
33574;DHT22;20085;50.832;4.392;2022-08-20T15:47:50;26.10;54.20
33574;DHT22;20085;50.832;4.392;2022-08-20T15:50:49;26.10;54.30